Laura B — WDI9376 — position and weather

sailwx.info

Track history (hours):
 
Tides and Currents Weather Stations Pressure Air Temp Water Temp Dewpoint Dewpoint Depression Visibility Wind Speed Wind Dir Waves Ship Positions

Laura B

Owner: G & H TOWING COMPANY, Galveston, TX. More information available from US FCC via Universal Licensing System and Coast Guard Vessel Documentation Center.

Last reported at 2017-Sep-22 00:17 UTC. Time now 2017-Sep-22 01:14 UTC.
Position N 29°44' W 095°13'.

Length 24 m; draft 4.9 m.

Type: Tug. MMSI: 367748030.

Date/timePositionNaut miles runAvg speedWind from/ knotsBaromVisibWave heightAir tempDewpointWater temp
2017-Sep-22 00:17N 29°44' W 095°13'2 7.5
2017-Sep-21 23:58N 29°44' W 095°16'3 0.6
2017-Sep-21 18:12N 29°44' W 095°12'0 0.6
2017-Sep-21 17:49N 29°44' W 095°12'2 3.3
2017-Sep-21 17:13N 29°45' W 095°10'1 2.2
2017-Sep-21 16:59N 29°45' W 095°10'0 0.0
2017-Sep-21 15:03N 29°45' W 095°10'5 3.7
2017-Sep-21 13:35N 29°44' W 095°16'2 2.1
2017-Sep-21 12:33N 29°43' W 095°14'1 0.5
2017-Sep-21 10:54N 29°43' W 095°15'5 0.7
2017-Sep-21 03:59N 29°45' W 095°10'3 0.6
2017-Sep-20 21:50N 29°45' W 095°06'1 0.2
2017-Sep-20 17:22N 29°44' W 095°07'1 1.5
2017-Sep-20 17:00N 29°44' W 095°07'0 0.0
2017-Sep-20 16:30N 29°44' W 095°07'1 0.1
2017-Sep-20 02:51N 29°45' W 095°06'8 0.9
2017-Sep-19 17:45N 29°44' W 095°16'1 0.8
2017-Sep-19 16:50N 29°44' W 095°17'9 1.6
2017-Sep-19 11:36N 29°44' W 095°07'0 0.9
2017-Sep-19 11:25N 29°45' W 095°07'0 0.0
2017-Sep-19 10:47N 29°45' W 095°07'0 0.0
2017-Sep-19 10:29N 29°45' W 095°07'2 1.2
2017-Sep-19 08:51N 29°46' W 095°05'2 5.5
2017-Sep-19 08:29N 29°45' W 095°07'0 0.0
2017-Sep-19 08:00N 29°45' W 095°07'0 0.0
2017-Sep-19 07:30N 29°45' W 095°07'0 0.0
2017-Sep-19 07:00N 29°45' W 095°07'0 0.0
2017-Sep-19 06:27N 29°45' W 095°07'0 0.0
2017-Sep-19 05:30N 29°45' W 095°07'0 0.0
2017-Sep-19 04:20N 29°45' W 095°07'0 0.0
2017-Sep-19 03:48N 29°45' W 095°07'1 0.3
2017-Sep-18 23:23N 29°44' W 095°08'2 2.4
2017-Sep-18 22:32N 29°45' W 095°10'0 1.5
2017-Sep-18 22:23N 29°45' W 095°10'2 3.2
2017-Sep-18 21:55N 29°44' W 095°09'0 0.0
2017-Sep-18 20:23N 29°44' W 095°09'4 2.4
2017-Sep-18 18:48N 29°46' W 095°04'2 1.0
2017-Sep-18 16:35N 29°45' W 095°07'0 0.1
2017-Sep-18 14:36N 29°44' W 095°07'1 8.0
2017-Sep-18 14:26N 29°44' W 095°08'4 3.0
2017-Sep-18 13:13N 29°44' W 095°12'5 4.8
2017-Sep-18 12:11N 29°45' W 095°07'0 0.0
2017-Sep-18 11:59N 29°45' W 095°07'0 0.0
2017-Sep-18 11:27N 29°45' W 095°07'0 0.0
2017-Sep-18 11:00N 29°45' W 095°07'0 0.0
2017-Sep-18 10:30N 29°45' W 095°07'0 0.0
2017-Sep-18 09:56N 29°45' W 095°07'2 1.5
2017-Sep-18 08:42N 29°46' W 095°05'2 7.8
2017-Sep-18 08:29N 29°45' W 095°06'0 0.0
2017-Sep-18 05:34N 29°45' W 095°07'0 0.0
2017-Sep-18 05:29N 29°45' W 095°07'0 0.0
2017-Sep-18 04:49N 29°45' W 095°07'0 0.0
2017-Sep-18 04:28N 29°45' W 095°07'0 0.0
2017-Sep-18 03:40N 29°45' W 095°07'0 0.0
2017-Sep-18 02:52N 29°45' W 095°07'5 1.3
2017-Sep-17 23:09N 29°43' W 095°01'1 7.0
2017-Sep-17 22:56N 29°42' W 094°60'1 2.6
2017-Sep-17 22:30N 29°42' W 095°01'5 7.5
2017-Sep-17 21:52N 29°46' W 095°05'2 0.1
2017-Sep-17 07:47N 29°45' W 095°07'0 0.0
2017-Sep-17 06:40N 29°45' W 095°07'0 0.0
2017-Sep-17 06:25N 29°45' W 095°07'0 0.0
2017-Sep-17 05:52N 29°45' W 095°07'0 0.0
2017-Sep-17 04:28N 29°45' W 095°07'0 0.0
2017-Sep-17 03:49N 29°45' W 095°07'0 0.0
2017-Sep-17 03:19N 29°45' W 095°07'0 0.0
2017-Sep-17 02:58N 29°45' W 095°07'1 0.4
2017-Sep-17 01:18N 29°45' W 095°06'1 2.8
2017-Sep-17 00:54N 29°46' W 095°05'2 0.6
2017-Sep-16 22:10N 29°44' W 095°07'0 0.0
2017-Sep-16 17:46N 29°44' W 095°07'0 0.0
2017-Sep-16 17:28N 29°44' W 095°07'2 1.1
2017-Sep-16 15:26N 29°46' W 095°05'2 4.7
2017-Sep-16 14:59N 29°45' W 095°07'0 0.0
2017-Sep-16 14:30N 29°45' W 095°07'0 0.0
2017-Sep-16 13:51N 29°45' W 095°07'0 0.0
2017-Sep-16 13:18N 29°45' W 095°07'0 0.3
2017-Sep-16 12:22N 29°44' W 095°07'3 2.6
2017-Sep-16 11:14N 29°45' W 095°10'3 0.1
2017-Sep-15 15:05N 29°45' W 095°07'0 3.5
2017-Sep-15 14:59N 29°45' W 095°06'3 1.5
2017-Sep-15 13:08N 29°44' W 095°09'2 4.6
2017-Sep-15 12:35N 29°45' W 095°07'0 0.4
2017-Sep-15 12:30N 29°45' W 095°07'0 0.0
2017-Sep-15 11:57N 29°45' W 095°07'0 0.0
2017-Sep-15 11:27N 29°45' W 095°07'0 0.0
2017-Sep-15 11:00N 29°45' W 095°07'0 0.0
2017-Sep-15 10:27N 29°45' W 095°07'0 0.0
2017-Sep-15 09:54N 29°45' W 095°07'0 0.0
2017-Sep-15 09:27N 29°45' W 095°07'0 0.0
2017-Sep-15 08:57N 29°45' W 095°07'0 0.0
2017-Sep-15 08:27N 29°45' W 095°07'0 0.0
2017-Sep-15 08:00N 29°45' W 095°07'0 0.0
2017-Sep-15 07:18N 29°45' W 095°07'2 1.3
2017-Sep-15 05:47N 29°46' W 095°05'3 3.1
2017-Sep-15 04:50N 29°44' W 095°08'1 1.0
2017-Sep-15 03:44N 29°45' W 095°07'0 0.1
2017-Sep-15 03:30N 29°45' W 095°07'0 0.0
2017-Sep-15 03:00N 29°45' W 095°07'0 0.0
2017-Sep-15 01:35N 29°45' W 095°07'0 0.1
2017-Sep-15 01:10N 29°45' W 095°07'0 0.0
2017-Sep-15 00:55N 29°45' W 095°07'0 0.0
2017-Sep-15 00:25N 29°45' W 095°07'4 1.5
2017-Sep-14 21:29N 29°44' W 095°02'4 7.8
2017-Sep-14 21:00N 29°45' W 095°06'1 1.3
2017-Sep-14 20:28N 29°45' W 095°06'1 0.1
2017-Sep-14 15:50N 29°44' W 095°07'0 0.0
2017-Sep-14 12:41N 29°44' W 095°07'0 0.3
2017-Sep-14 12:27N 29°45' W 095°07'0 0.0
2017-Sep-14 11:54N 29°45' W 095°07'0 0.0
2017-Sep-14 11:15N 29°45' W 095°07'1 0.6
2017-Sep-14 10:26N 29°45' W 095°06'1 2.1
2017-Sep-14 09:55N 29°46' W 095°05'2 0.7
2017-Sep-14 07:42N 29°45' W 095°07'0 0.1
2017-Sep-14 05:20N 29°45' W 095°06'0 0.2
2017-Sep-14 03:48N 29°44' W 095°07'2 1.6
2017-Sep-14 02:40N 29°46' W 095°05'0 1.3
2017-Sep-14 02:30N 29°46' W 095°05'2 3.0
2017-Sep-14 01:57N 29°45' W 095°07'0 0.0
2017-Sep-14 01:24N 29°45' W 095°07'1 1.4
2017-Sep-14 00:44N 29°44' W 095°08'1 3.6
2017-Sep-14 00:28N 29°45' W 095°07'0 0.0
2017-Sep-13 23:52N 29°45' W 095°07'2 1.1
2017-Sep-13 22:24N 29°46' W 095°05'2 1.1
2017-Sep-13 20:21N 29°44' W 095°07'0 0.6
2017-Sep-13 20:00N 29°44' W 095°07'0 0.0
2017-Sep-13 19:19N 29°44' W 095°07'0 0.0
2017-Sep-13 18:54N 29°44' W 095°07'5 0.5
2017-Sep-13 06:46N 29°44' W 095°14'2 3.3
2017-Sep-13 06:17N 29°44' W 095°12'5 3.0
2017-Sep-13 04:40N 29°44' W 095°07'0 0.0
2017-Sep-13 04:13N 29°45' W 095°07'0 0.0
2017-Sep-13 03:55N 29°45' W 095°07'0 0.0
2017-Sep-13 03:25N 29°45' W 095°07'0 0.0
2017-Sep-13 02:58N 29°45' W 095°07'0 0.0
2017-Sep-13 02:19N 29°45' W 095°07'2 1.2
2017-Sep-13 00:44N 29°46' W 095°05'5 1.4
2017-Sep-12 21:10N 29°42' W 095°01'2 9.1
2017-Sep-12 20:59N 29°42' W 094°59'3 6.4
2017-Sep-12 20:30N 29°44' W 095°02'4 6.6
2017-Sep-12 19:58N 29°46' W 095°05'1 0.3
2017-Sep-12 15:41N 29°44' W 095°07'7 3.0
2017-Sep-12 13:24N 29°43' W 095°14'1 0.3
2017-Sep-12 11:07N 29°44' W 095°14'3 0.6
2017-Sep-12 06:23N 29°45' W 095°11'0 0.4
2017-Sep-12 05:56N 29°45' W 095°11'1 1.0
2017-Sep-12 05:00N 29°45' W 095°10'0 0.0
2017-Sep-12 04:16N 29°45' W 095°10'0 0.0
2017-Sep-12 03:57N 29°45' W 095°10'1 1.4
2017-Sep-12 03:14N 29°44' W 095°09'1 1.8
2017-Sep-12 02:41N 29°45' W 095°10'0 0.0
2017-Sep-12 02:29N 29°45' W 095°10'0 0.0
2017-Sep-12 01:59N 29°45' W 095°10'0 0.0
2017-Sep-12 01:29N 29°45' W 095°10'0 0.0
2017-Sep-12 01:00N 29°45' W 095°10'1 1.5
2017-Sep-12 00:18N 29°45' W 095°11'  
Track history (hours):
 
Tides and Currents Weather Stations Pressure Air Temp Water Temp Dewpoint Dewpoint Depression Visibility Wind Speed Wind Dir Waves Ship Positions

Laura B

Owner: G & H TOWING COMPANY, Galveston, TX. More information available from US FCC via Universal Licensing System and Coast Guard Vessel Documentation Center.

Last reported at 2017-Sep-22 00:17 UTC. Time now 2017-Sep-22 01:14 UTC.
Position N 29°44' W 095°13'.

Length 24 m; draft 4.9 m.

Type: Tug. MMSI: 367748030.

Date/timePositionNaut miles runAvg speedWind from/ knotsBaromVisibWave heightAir tempDewpointWater temp
2017-Sep-22 00:17N 29°44' W 095°13'2 7.5
2017-Sep-21 23:58N 29°44' W 095°16'3 0.6
2017-Sep-21 18:12N 29°44' W 095°12'0 0.6
2017-Sep-21 17:49N 29°44' W 095°12'2 3.3
2017-Sep-21 17:13N 29°45' W 095°10'1 2.2
2017-Sep-21 16:59N 29°45' W 095°10'0 0.0
2017-Sep-21 15:03N 29°45' W 095°10'5 3.7
2017-Sep-21 13:35N 29°44' W 095°16'2 2.1
2017-Sep-21 12:33N 29°43' W 095°14'1 0.5
2017-Sep-21 10:54N 29°43' W 095°15'5 0.7
2017-Sep-21 03:59N 29°45' W 095°10'3 0.6
2017-Sep-20 21:50N 29°45' W 095°06'1 0.2
2017-Sep-20 17:22N 29°44' W 095°07'1 1.5
2017-Sep-20 17:00N 29°44' W 095°07'0 0.0
2017-Sep-20 16:30N 29°44' W 095°07'1 0.1
2017-Sep-20 02:51N 29°45' W 095°06'8 0.9
2017-Sep-19 17:45N 29°44' W 095°16'1 0.8
2017-Sep-19 16:50N 29°44' W 095°17'9 1.6
2017-Sep-19 11:36N 29°44' W 095°07'0 0.9
2017-Sep-19 11:25N 29°45' W 095°07'0 0.0
2017-Sep-19 10:47N 29°45' W 095°07'0 0.0
2017-Sep-19 10:29N 29°45' W 095°07'2 1.2
2017-Sep-19 08:51N 29°46' W 095°05'2 5.5
2017-Sep-19 08:29N 29°45' W 095°07'0 0.0
2017-Sep-19 08:00N 29°45' W 095°07'0 0.0
2017-Sep-19 07:30N 29°45' W 095°07'0 0.0
2017-Sep-19 07:00N 29°45' W 095°07'0 0.0
2017-Sep-19 06:27N 29°45' W 095°07'0 0.0
2017-Sep-19 05:30N 29°45' W 095°07'0 0.0
2017-Sep-19 04:20N 29°45' W 095°07'0 0.0
2017-Sep-19 03:48N 29°45' W 095°07'1 0.3
2017-Sep-18 23:23N 29°44' W 095°08'2 2.4
2017-Sep-18 22:32N 29°45' W 095°10'0 1.5
2017-Sep-18 22:23N 29°45' W 095°10'2 3.2
2017-Sep-18 21:55N 29°44' W 095°09'0 0.0
2017-Sep-18 20:23N 29°44' W 095°09'4 2.4
2017-Sep-18 18:48N 29°46' W 095°04'2 1.0
2017-Sep-18 16:35N 29°45' W 095°07'0 0.1
2017-Sep-18 14:36N 29°44' W 095°07'1 8.0
2017-Sep-18 14:26N 29°44' W 095°08'4 3.0
2017-Sep-18 13:13N 29°44' W 095°12'5 4.8
2017-Sep-18 12:11N 29°45' W 095°07'0 0.0
2017-Sep-18 11:59N 29°45' W 095°07'0 0.0
2017-Sep-18 11:27N 29°45' W 095°07'0 0.0
2017-Sep-18 11:00N 29°45' W 095°07'0 0.0
2017-Sep-18 10:30N 29°45' W 095°07'0 0.0
2017-Sep-18 09:56N 29°45' W 095°07'2 1.5
2017-Sep-18 08:42N 29°46' W 095°05'2 7.8
2017-Sep-18 08:29N 29°45' W 095°06'0 0.0
2017-Sep-18 05:34N 29°45' W 095°07'0 0.0
2017-Sep-18 05:29N 29°45' W 095°07'0 0.0
2017-Sep-18 04:49N 29°45' W 095°07'0 0.0
2017-Sep-18 04:28N 29°45' W 095°07'0 0.0
2017-Sep-18 03:40N 29°45' W 095°07'0 0.0
2017-Sep-18 02:52N 29°45' W 095°07'5 1.3
2017-Sep-17 23:09N 29°43' W 095°01'1 7.0
2017-Sep-17 22:56N 29°42' W 094°60'1 2.6
2017-Sep-17 22:30N 29°42' W 095°01'5 7.5
2017-Sep-17 21:52N 29°46' W 095°05'2 0.1
2017-Sep-17 07:47N 29°45' W 095°07'0 0.0
2017-Sep-17 06:40N 29°45' W 095°07'0 0.0
2017-Sep-17 06:25N 29°45' W 095°07'0 0.0
2017-Sep-17 05:52N 29°45' W 095°07'0 0.0
2017-Sep-17 04:28N 29°45' W 095°07'0 0.0
2017-Sep-17 03:49N 29°45' W 095°07'0 0.0
2017-Sep-17 03:19N 29°45' W 095°07'0 0.0
2017-Sep-17 02:58N 29°45' W 095°07'1 0.4
2017-Sep-17 01:18N 29°45' W 095°06'1 2.8
2017-Sep-17 00:54N 29°46' W 095°05'2 0.6
2017-Sep-16 22:10N 29°44' W 095°07'0 0.0
2017-Sep-16 17:46N 29°44' W 095°07'0 0.0
2017-Sep-16 17:28N 29°44' W 095°07'2 1.1
2017-Sep-16 15:26N 29°46' W 095°05'2 4.7
2017-Sep-16 14:59N 29°45' W 095°07'0 0.0
2017-Sep-16 14:30N 29°45' W 095°07'0 0.0
2017-Sep-16 13:51N 29°45' W 095°07'0 0.0
2017-Sep-16 13:18N 29°45' W 095°07'0 0.3
2017-Sep-16 12:22N 29°44' W 095°07'3 2.6
2017-Sep-16 11:14N 29°45' W 095°10'3 0.1
2017-Sep-15 15:05N 29°45' W 095°07'0 3.5
2017-Sep-15 14:59N 29°45' W 095°06'3 1.5
2017-Sep-15 13:08N 29°44' W 095°09'2 4.6
2017-Sep-15 12:35N 29°45' W 095°07'0 0.4
2017-Sep-15 12:30N 29°45' W 095°07'0 0.0
2017-Sep-15 11:57N 29°45' W 095°07'0 0.0
2017-Sep-15 11:27N 29°45' W 095°07'0 0.0
2017-Sep-15 11:00N 29°45' W 095°07'0 0.0
2017-Sep-15 10:27N 29°45' W 095°07'0 0.0
2017-Sep-15 09:54N 29°45' W 095°07'0 0.0
2017-Sep-15 09:27N 29°45' W 095°07'0 0.0
2017-Sep-15 08:57N 29°45' W 095°07'0 0.0
2017-Sep-15 08:27N 29°45' W 095°07'0 0.0
2017-Sep-15 08:00N 29°45' W 095°07'0 0.0
2017-Sep-15 07:18N 29°45' W 095°07'2 1.3
2017-Sep-15 05:47N 29°46' W 095°05'3 3.1
2017-Sep-15 04:50N 29°44' W 095°08'1 1.0
2017-Sep-15 03:44N 29°45' W 095°07'0 0.1
2017-Sep-15 03:30N 29°45' W 095°07'0 0.0
2017-Sep-15 03:00N 29°45' W 095°07'0 0.0
2017-Sep-15 01:35N 29°45' W 095°07'0 0.1
2017-Sep-15 01:10N 29°45' W 095°07'0 0.0
2017-Sep-15 00:55N 29°45' W 095°07'0 0.0
2017-Sep-15 00:25N 29°45' W 095°07'4 1.5
2017-Sep-14 21:29N 29°44' W 095°02'4 7.8
2017-Sep-14 21:00N 29°45' W 095°06'1 1.3
2017-Sep-14 20:28N 29°45' W 095°06'1 0.1
2017-Sep-14 15:50N 29°44' W 095°07'0 0.0
2017-Sep-14 12:41N 29°44' W 095°07'0 0.3
2017-Sep-14 12:27N 29°45' W 095°07'0 0.0
2017-Sep-14 11:54N 29°45' W 095°07'0 0.0
2017-Sep-14 11:15N 29°45' W 095°07'1 0.6
2017-Sep-14 10:26N 29°45' W 095°06'1 2.1
2017-Sep-14 09:55N 29°46' W 095°05'2 0.7
2017-Sep-14 07:42N 29°45' W 095°07'0 0.1
2017-Sep-14 05:20N 29°45' W 095°06'0 0.2
2017-Sep-14 03:48N 29°44' W 095°07'2 1.6
2017-Sep-14 02:40N 29°46' W 095°05'0 1.3
2017-Sep-14 02:30N 29°46' W 095°05'2 3.0
2017-Sep-14 01:57N 29°45' W 095°07'0 0.0
2017-Sep-14 01:24N 29°45' W 095°07'1 1.4
2017-Sep-14 00:44N 29°44' W 095°08'1 3.6
2017-Sep-14 00:28N 29°45' W 095°07'0 0.0
2017-Sep-13 23:52N 29°45' W 095°07'2 1.1
2017-Sep-13 22:24N 29°46' W 095°05'2 1.1
2017-Sep-13 20:21N 29°44' W 095°07'0 0.6
2017-Sep-13 20:00N 29°44' W 095°07'0 0.0
2017-Sep-13 19:19N 29°44' W 095°07'0 0.0
2017-Sep-13 18:54N 29°44' W 095°07'5 0.5
2017-Sep-13 06:46N 29°44' W 095°14'2 3.3
2017-Sep-13 06:17N 29°44' W 095°12'5 3.0
2017-Sep-13 04:40N 29°44' W 095°07'0 0.0
2017-Sep-13 04:13N 29°45' W 095°07'0 0.0
2017-Sep-13 03:55N 29°45' W 095°07'0 0.0
2017-Sep-13 03:25N 29°45' W 095°07'0 0.0
2017-Sep-13 02:58N 29°45' W 095°07'0 0.0
2017-Sep-13 02:19N 29°45' W 095°07'2 1.2
2017-Sep-13 00:44N 29°46' W 095°05'5 1.4
2017-Sep-12 21:10N 29°42' W 095°01'2 9.1
2017-Sep-12 20:59N 29°42' W 094°59'3 6.4
2017-Sep-12 20:30N 29°44' W 095°02'4 6.6
2017-Sep-12 19:58N 29°46' W 095°05'1 0.3
2017-Sep-12 15:41N 29°44' W 095°07'7 3.0
2017-Sep-12 13:24N 29°43' W 095°14'1 0.3
2017-Sep-12 11:07N 29°44' W 095°14'3 0.6
2017-Sep-12 06:23N 29°45' W 095°11'0 0.4
2017-Sep-12 05:56N 29°45' W 095°11'1 1.0
2017-Sep-12 05:00N 29°45' W 095°10'0 0.0
2017-Sep-12 04:16N 29°45' W 095°10'0 0.0
2017-Sep-12 03:57N 29°45' W 095°10'1 1.4
2017-Sep-12 03:14N 29°44' W 095°09'1 1.8
2017-Sep-12 02:41N 29°45' W 095°10'0 0.0
2017-Sep-12 02:29N 29°45' W 095°10'0 0.0
2017-Sep-12 01:59N 29°45' W 095°10'0 0.0
2017-Sep-12 01:29N 29°45' W 095°10'0 0.0
2017-Sep-12 01:00N 29°45' W 095°10'1 1.5
2017-Sep-12 00:18N 29°45' W 095°11'  

Dump ship's entire track history